Airfield :
LOGIN :

Register | Disclaimer

   EN    FR    IT 

 










Legend :    VFR   Marginal VFR   IFR   Intensive IFR   Very Intensive IFR
Visi :
Ceiling :
>= 8 km
>= 3000ft
5 to 8 km
1000 to 3000 ft
1500m to 5 km
500 to 1000 ft
800 to 1500m
200 to 500 ft
< 800m
< 200 ft
Symbols :   Thunderstorms  Fog  Heavy snow  Heavy precipitations  Wind > 20 kt
SIGMETs :     Misc.  Thunderstorms  Icing  Turbulence  Mountain Waves  Volcanic Ashes






- Airport Elevation : 505 ft
- IATA code : SXB


LFST - Strasbourg

CURRENT METAR :
  • 250830Z AUTO 35005KT 250V050 9999 FEW027 BKN084 18/11 Q1033 NOSIG

EXPIRED METARs :
  • 250800Z AUTO 36004KT 320V040 CAVOK 17/10 Q1033 NOSIG
  • 250730Z AUTO 36006KT 320V040 9999 FEW026 BKN086 17/11 Q1033 NOSIG
  • 250700Z AUTO 35006KT 320V040 CAVOK 16/10 Q1033 NOSIG
  • 250630Z AUTO VRB01KT CAVOK 16/11 Q1033 NOSIG
  • 250600Z AUTO VRB02KT CAVOK 13/10 Q1033 NOSIG

TAF TAF LFST
Valid from the 25 at 06:00 until the 26 at 06:00 UTC


250500Z 2506/2606 36004KT 9999 SCT050



MET'MAP, your aeronautical weather chart ! - Copyright ORBIFLY December 2007 - Disclaimer

ORBIFLY MET'MAP TEAM :

Programming & Development : Alexandra Zaïnal
Concept & original design : Baudouin d'Aumeries
Assistance for programming : Marc-Olivier Méhu
Technical & hardware support : Manuel Goepfert

Contact : metmap@orbifly.com




SOURCES & CREDITS :

   NOAA